createdAt,value
2022-09-24T00:00:14.397Z,-11051.94
2022-09-24T00:03:22.963Z,-11022.47
2022-09-24T00:06:31.054Z,-11041.00
2022-09-24T00:09:36.970Z,-11057.28
2022-09-24T00:12:43.371Z,-11047.59
2022-09-24T00:15:51.680Z,-11030.75
2022-09-24T00:19:00.566Z,-11030.19
2022-09-24T00:22:06.817Z,-11016.44
2022-09-24T00:25:30.888Z,-11038.88
2022-09-24T00:28:37.221Z,-11058.25
2022-09-24T00:31:43.508Z,-11045.63
2022-09-24T00:34:53.323Z,-11042.53
2022-09-24T00:37:59.886Z,-11007.91
2022-09-24T00:41:06.452Z,-11022.06
2022-09-24T00:44:55.646Z,-11003.69
2022-09-24T00:48:01.792Z,-10995.00
2022-09-24T00:51:11.045Z,-10994.44
2022-09-24T00:54:20.981Z,-10994.28
2022-09-24T00:57:28.402Z,-11004.09
2022-09-24T01:00:35.406Z,-11038.59
2022-09-24T01:03:43.285Z,-11029.63
2022-09-24T01:06:51.369Z,-11022.62
2022-09-24T01:09:58.051Z,-11018.56
2022-09-24T01:13:15.231Z,-11025.72
2022-09-24T01:16:29.662Z,-11011.13
2022-09-24T01:19:54.515Z,-11018.84
2022-09-24T01:23:23.262Z,-11020.78
2022-09-24T01:26:48.576Z,-11032.16
2022-09-24T01:30:05.394Z,-11032.44
2022-09-24T01:33:17.420Z,-11032.72
2022-09-24T01:36:24.985Z,-11030.06
2022-09-24T01:39:33.195Z,-11002.16
2022-09-24T01:42:43.992Z,-10999.91
2022-09-24T01:45:52.343Z,-11026.81
2022-09-24T01:48:58.571Z,-11031.88
2022-09-24T01:52:11.896Z,-11037.06
2022-09-24T01:55:21.552Z,-11037.34
2022-09-24T01:58:33.085Z,-11009.16
2022-09-24T02:01:48.703Z,-11029.78
2022-09-24T02:05:00.864Z,-11032.56
2022-09-24T02:08:10.819Z,-11022.34
2022-09-24T02:11:21.896Z,-11002.72
2022-09-24T02:14:32.907Z,-10991.63
2022-09-24T02:17:45.352Z,-11006.78
2022-09-24T02:20:52.917Z,-10979.72
2022-09-24T02:24:04.500Z,-10968.22
2022-09-24T02:27:10.702Z,-10974.25
2022-09-24T02:30:17.478Z,-10992.91
2022-09-24T02:33:59.688Z,-11002.84
2022-09-24T02:37:08.715Z,-11001.88
2022-09-24T02:40:16.023Z,-11005.09
2022-09-24T02:43:22.559Z,-11022.91
2022-09-24T02:46:28.992Z,-11015.88
2022-09-24T02:49:36.597Z,-11003.81
2022-09-24T02:52:42.926Z,-11014.19
2022-09-24T02:55:49.124Z,-10983.34
2022-09-24T02:58:55.630Z,-10985.59
2022-09-24T03:02:01.879Z,-10979.72
2022-09-24T03:05:10.465Z,-10980.56
2022-09-24T03:08:16.651Z,-10977.06
2022-09-24T03:11:22.992Z,-11001.44
2022-09-24T03:14:29.435Z,-11014.19
2022-09-24T03:17:35.832Z,-11000.19
2022-09-24T03:20:43.596Z,-11000.75
2022-09-24T03:23:49.772Z,-11004.94
2022-09-24T03:26:56.186Z,-11007.06
2022-09-24T03:30:20.277Z,-10984.34
2022-09-24T03:33:26.505Z,-11003.81
2022-09-24T03:36:34.164Z,-11002.97
2022-09-24T03:39:40.477Z,-11011.13
2022-09-24T03:42:46.807Z,-11017.00
2022-09-24T03:45:53.434Z,-10985.88
2022-09-24T03:49:00.746Z,-10985.59
2022-09-24T03:52:08.394Z,-10981.13
2022-09-24T03:55:14.668Z,-10982.66
2022-09-24T03:58:20.594Z,-10980.13
2022-09-24T04:01:27.184Z,-10978.19
2022-09-24T04:04:33.483Z,-10979.44
2022-09-24T04:07:41.843Z,-10956.16
2022-09-24T04:10:48.101Z,-10963.31
2022-09-24T04:13:54.637Z,-10970.19
2022-09-24T04:17:01.017Z,-10965.41
2022-09-24T04:20:08.004Z,-10969.34
2022-09-24T04:23:15.917Z,-10960.09
2022-09-24T04:26:21.812Z,-10973.81
2022-09-24T04:29:28.304Z,-10965.16
2022-09-24T04:32:34.846Z,-10979.00
2022-09-24T04:35:41.260Z,-10975.50
2022-09-24T04:38:49.142Z,-10965.69
2022-09-24T04:41:55.470Z,-10958.13
2022-09-24T04:45:03.167Z,-10962.63
2022-09-24T04:48:09.268Z,-10979.72
2022-09-24T04:51:15.827Z,-10972.44
2022-09-24T04:54:23.420Z,-10992.34
2022-09-24T04:57:36.066Z,-10986.44
2022-09-24T05:00:43.382Z,-11012.81
2022-09-24T05:03:49.380Z,-11002.00
2022-09-24T05:06:55.845Z,-11008.31
2022-09-24T05:10:04.996Z,-10995.97
2022-09-24T05:13:11.637Z,-10998.63
2022-09-24T05:16:17.974Z,-11000.88
2022-09-24T05:19:24.425Z,-11021.06
2022-09-24T05:22:31.707Z,-11028.09
2022-09-24T05:25:59.551Z,-11050.13
2022-09-24T05:29:04.827Z,-11024.44
2022-09-24T05:32:12.985Z,-11050.13
2022-09-24T05:35:20.062Z,-11036.94
2022-09-24T05:38:26.192Z,-11029.06
2022-09-24T05:41:34.053Z,-11020.09
2022-09-24T05:44:40.219Z,-11030.47
2022-09-24T05:47:47.044Z,-11055.44
2022-09-24T05:50:55.635Z,-11064.44
2022-09-24T05:54:02.109Z,-11076.22
2022-09-24T05:57:09.961Z,-11083.66
2022-09-24T06:00:16.727Z,-11087.72
2022-09-24T06:03:22.846Z,-11102.62
2022-09-24T06:06:29.862Z,-11100.78
2022-09-24T06:09:36.678Z,-11101.50
2022-09-24T06:12:44.043Z,-11101.63
2022-09-24T06:15:50.197Z,-11106.28
2022-09-24T06:18:55.948Z,-11111.19
2022-09-24T06:22:02.329Z,-11093.63
2022-09-24T06:25:10.193Z,-11114.13
2022-09-24T06:28:17.933Z,-11120.59
2022-09-24T06:31:24.333Z,-11115.81
2022-09-24T06:34:30.554Z,-11128.47
2022-09-24T06:37:36.504Z,-11148.25
2022-09-24T06:40:43.602Z,-11139.13
2022-09-24T06:43:51.239Z,-11138.44
2022-09-24T06:46:58.121Z,-11140.81
2022-09-24T06:50:04.393Z,-11176.94
2022-09-24T06:53:12.007Z,-11175.38
2022-09-24T06:56:18.452Z,-11167.09
2022-09-24T06:59:26.030Z,-11172.59
2022-09-24T07:02:32.665Z,-11186.91
2022-09-24T07:05:43.406Z,-11166.13
2022-09-24T07:08:52.451Z,-11180.31
2022-09-24T07:12:01.645Z,-11180.03
2022-09-24T07:15:10.903Z,-11188.03
2022-09-24T07:18:18.464Z,-11216.72
2022-09-24T07:21:24.609Z,-11190.72
2022-09-24T07:24:30.951Z,-11213.63
2022-09-24T07:27:37.357Z,-11208.56
2022-09-24T07:30:45.209Z,-11217.28
2022-09-24T07:33:51.890Z,-11226.84
2022-09-24T07:36:58.923Z,-11233.88
2022-09-24T07:40:05.867Z,-11249.37
2022-09-24T07:43:14.321Z,-11226.00
2022-09-24T07:46:21.981Z,-11245.44
2022-09-24T07:49:32.304Z,-11256.97
2022-09-24T07:52:38.581Z,-11255.00
2022-09-24T07:55:45.606Z,-11255.28
2022-09-24T07:58:52.113Z,-11258.66
2022-09-24T08:01:59.834Z,-11275.25
2022-09-24T08:05:07.040Z,-11290.88
2022-09-24T08:08:13.246Z,-11280.75
2022-09-24T08:11:20.561Z,-11302.16
2022-09-24T08:14:26.815Z,-11305.66
2022-09-24T08:17:34.778Z,-11291.16
2022-09-24T08:20:41.257Z,-11317.78
2022-09-24T08:23:47.836Z,-11313.41
2022-09-24T08:26:54.386Z,-11336.38
2022-09-24T08:30:00.764Z,-11341.84
2022-09-24T08:33:08.388Z,-11342.84
2022-09-24T08:36:15.030Z,-11339.19
2022-09-24T08:39:21.187Z,-11346.50
2022-09-24T08:42:36.881Z,-11350.31
2022-09-24T08:46:07.085Z,-11343.53
2022-09-24T08:49:18.615Z,-11364.97
2022-09-24T08:52:37.731Z,-11348.63
2022-09-24T08:55:48.363Z,-11356.66
2022-09-24T08:58:59.797Z,-11371.16
2022-09-24T09:02:36.186Z,-11370.03
2022-09-24T09:05:57.858Z,-11367.22
2022-09-24T09:09:12.576Z,-11386.22
2022-09-24T09:12:24.807Z,-11379.03
2022-09-24T09:15:35.275Z,-11384.13
2022-09-24T09:18:46.188Z,-11411.31
2022-09-24T09:21:58.539Z,-11411.88
2022-09-24T09:25:18.493Z,-11388.75
2022-09-24T09:28:24.623Z,-11400.47
2022-09-24T09:31:44.438Z,-11411.88
2022-09-24T09:35:01.114Z,-11424.00
2022-09-24T09:38:20.751Z,-11424.28
2022-09-24T09:41:36.165Z,-11414.00
2022-09-24T09:44:44.825Z,-11429.38
2022-09-24T09:47:55.898Z,-11414.84
2022-09-24T09:51:06.207Z,-11439.38
2022-09-24T09:54:13.971Z,-11415.81
2022-09-24T09:57:23.326Z,-11412.88
2022-09-24T10:00:35.255Z,-11418.94
2022-09-24T10:03:50.156Z,-11431.34
2022-09-24T10:07:06.030Z,-11421.59
2022-09-24T10:10:20.972Z,-11447.25
2022-09-24T10:13:28.765Z,-11445.72
2022-09-24T10:16:40.610Z,-11444.88
2022-09-24T10:19:50.995Z,-11446.97
2022-09-24T10:23:00.434Z,-11446.56
2022-09-24T10:26:08.819Z,-11433.03
2022-09-24T10:29:35.944Z,-11439.66
2022-09-24T10:32:42.739Z,-11452.47
2022-09-24T10:35:49.515Z,-11440.63
2022-09-24T10:39:04.587Z,-11447.81
2022-09-24T10:42:25.269Z,-11436.69
2022-09-24T10:45:58.296Z,-11456.72
2022-09-24T10:49:16.375Z,-11451.50
2022-09-24T10:52:40.647Z,-11462.06
2022-09-24T10:55:57.283Z,-11464.75
2022-09-24T10:59:23.735Z,-11460.25
2022-09-24T11:03:02.106Z,-11464.31
2022-09-24T11:06:19.459Z,-11475.63
2022-09-24T11:09:38.889Z,-11453.19
2022-09-24T11:12:54.004Z,-11458.69
2022-09-24T11:16:21.127Z,-11469.97
2022-09-24T11:19:52.000Z,-11474.34
2022-09-24T11:23:24.667Z,-11489.56
2022-09-24T11:26:39.655Z,-11485.47
2022-09-24T11:30:04.014Z,-11479.84
2022-09-24T11:33:26.385Z,-11467.28
2022-09-24T11:36:47.307Z,-11492.97
2022-09-24T11:40:10.978Z,-11487.59
2022-09-24T11:43:42.311Z,-11479.97
2022-09-24T11:47:04.142Z,-11495.63
2022-09-24T11:50:34.033Z,-11490.84
2022-09-24T11:53:44.931Z,-11492.97
2022-09-24T11:56:57.946Z,-11507.34
2022-09-24T12:00:09.774Z,-11502.13
2022-09-24T12:03:25.891Z,-11504.38
2022-09-24T12:06:37.851Z,-11495.34
2022-09-24T12:09:49.398Z,-11515.81
2022-09-24T12:13:04.307Z,-11485.34
2022-09-24T12:16:14.724Z,-11491.41
2022-09-24T12:19:25.608Z,-11494.50
2022-09-24T12:22:37.004Z,-11501.28
2022-09-24T12:25:46.596Z,-11491.41
2022-09-24T12:29:17.596Z,-11498.75
2022-09-24T12:32:48.871Z,-11528.09
2022-09-24T12:36:04.605Z,-11523.00
2022-09-24T12:39:16.688Z,-11528.94
2022-09-24T12:42:26.119Z,-11512.97
2022-09-24T12:45:34.269Z,-11524.97
2022-09-24T12:48:41.248Z,-11552.34
2022-09-24T12:51:47.968Z,-11543.31
2022-09-24T12:55:02.553Z,-11537.13
2022-09-24T12:58:29.907Z,-11548.41
2022-09-24T13:01:36.569Z,-11537.97
2022-09-24T13:04:46.366Z,-11548.13
2022-09-24T13:08:01.598Z,-11567.03
2022-09-24T13:11:31.174Z,-11566.47
2022-09-24T13:14:37.676Z,-11553.47
2022-09-24T13:17:45.035Z,-11572.13
2022-09-24T13:21:07.692Z,-11534.16
2022-09-24T13:24:30.923Z,-11568.88
2022-09-24T13:27:41.391Z,-11494.22
2022-09-24T13:30:53.220Z,-11515.53
2022-09-24T13:34:04.054Z,-11506.62
2022-09-24T13:37:20.148Z,-11512.84
2022-09-24T13:40:30.082Z,-11525.84
2022-09-24T13:43:48.591Z,-11533.16
2022-09-24T13:47:00.622Z,-11565.06
2022-09-24T13:50:16.292Z,-11571.41
2022-09-24T13:53:30.039Z,-11551.50
2022-09-24T13:56:36.298Z,-11559.81
2022-09-24T13:59:43.951Z,-11552.63
2022-09-24T14:02:58.056Z,-11585.38
2022-09-24T14:06:12.705Z,-11559.69
2022-09-24T14:09:31.681Z,-11549.53
2022-09-24T14:12:38.064Z,-11559.41
2022-09-24T14:15:55.295Z,-11532.88
2022-09-24T14:19:04.452Z,-11522.31
2022-09-24T14:22:16.201Z,-11524.00
2022-09-24T14:25:29.160Z,-11544.88
2022-09-24T14:28:36.320Z,-11531.31
2022-09-24T14:31:50.380Z,-11529.34
2022-09-24T14:34:59.679Z,-11534.00
2022-09-24T14:38:09.635Z,-11505.38
2022-09-24T14:41:19.166Z,-11510.31
2022-09-24T14:44:28.241Z,-11481.25
2022-09-24T14:47:37.720Z,-11477.88
2022-09-24T14:50:43.927Z,-11482.66
2022-09-24T14:53:59.520Z,-11479.56
2022-09-24T14:57:13.556Z,-11459.69
2022-09-24T15:00:25.250Z,-11454.59
2022-09-24T15:03:40.330Z,-11449.53
2022-09-24T15:06:49.136Z,-11459.81
2022-09-24T15:09:57.715Z,-11449.66
2022-09-24T15:13:15.498Z,-11446.00
2022-09-24T15:16:28.879Z,-11436.41
2022-09-24T15:19:37.321Z,-11446.13
2022-09-24T15:22:43.623Z,-11436.97
2022-09-24T15:25:50.708Z,-11425.69
2022-09-24T15:28:58.668Z,-11413.28
2022-09-24T15:32:17.344Z,-11429.09
2022-09-24T15:35:25.178Z,-11416.09
2022-09-24T15:38:31.676Z,-11406.25
2022-09-24T15:41:40.308Z,-11391.31
2022-09-24T15:44:47.680Z,-11390.31
2022-09-24T15:47:54.997Z,-11380.75
2022-09-24T15:51:10.133Z,-11374.25
2022-09-24T15:54:18.018Z,-11359.31
2022-09-24T15:57:24.424Z,-11352.41
2022-09-24T16:00:30.950Z,-11359.19
2022-09-24T16:03:37.384Z,-11362.56
2022-09-24T16:06:45.171Z,-11346.78
2022-09-24T16:09:51.503Z,-11336.94
2022-09-24T16:12:57.892Z,-11337.78
2022-09-24T16:16:07.005Z,-11343.97
2022-09-24T16:19:13.200Z,-11334.66
2022-09-24T16:22:20.914Z,-11338.75
2022-09-24T16:25:28.171Z,-11326.06
2022-09-24T16:28:34.378Z,-11315.81
2022-09-24T16:31:40.686Z,-11314.41
2022-09-24T16:34:46.909Z,-11310.31
2022-09-24T16:37:55.037Z,-11313.97
2022-09-24T16:41:01.385Z,-11312.72
2022-09-24T16:44:07.839Z,-11309.03
2022-09-24T16:47:16.409Z,-11302.56
2022-09-24T16:50:23.795Z,-11307.22
2022-09-24T16:53:31.514Z,-11305.66
2022-09-24T16:56:38.768Z,-11298.06
2022-09-24T16:59:44.843Z,-11292.84
2022-09-24T17:02:50.949Z,-11289.63
2022-09-24T17:05:57.300Z,-11290.59
2022-09-24T17:09:22.767Z,-11287.91
2022-09-24T17:12:28.954Z,-11284.56
2022-09-24T17:15:35.730Z,-11294.41
2022-09-24T17:18:41.953Z,-11293.13
2022-09-24T17:21:50.331Z,-11295.25
2022-09-24T17:24:58.422Z,-11286.50
2022-09-24T17:28:04.452Z,-11271.88
2022-09-24T17:31:12.642Z,-11274.41
2022-09-24T17:34:19.426Z,-11286.50
2022-09-24T17:37:27.428Z,-11286.94
2022-09-24T17:40:35.184Z,-11272.44
2022-09-24T17:43:42.764Z,-11257.53
2022-09-24T17:46:49.187Z,-11269.50
2022-09-24T17:49:55.784Z,-11274.69
2022-09-24T17:53:03.926Z,-11268.78
2022-09-24T17:56:13.804Z,-11263.44
2022-09-24T17:59:25.575Z,-11257.81
2022-09-24T18:02:32.839Z,-11245.72
2022-09-24T18:05:39.245Z,-11231.22
2022-09-24T18:08:46.781Z,-11229.66
2022-09-24T18:11:54.498Z,-11219.69
2022-09-24T18:15:00.412Z,-11223.34
2022-09-24T18:18:07.060Z,-11222.63
2022-09-24T18:21:15.449Z,-11212.78
2022-09-24T18:24:23.054Z,-11209.97
2022-09-24T18:27:31.848Z,-11208.84
2022-09-24T18:30:38.539Z,-11215.88
2022-09-24T18:33:46.630Z,-11217.56
2022-09-24T18:36:52.736Z,-11212.50
2022-09-24T18:39:58.713Z,-11215.75
2022-09-24T18:43:06.517Z,-11212.94
2022-09-24T18:46:14.624Z,-11218.13
2022-09-24T18:49:21.291Z,-11215.03
2022-09-24T18:52:28.973Z,-11212.22
2022-09-24T18:55:40.733Z,-11199.28
2022-09-24T18:58:48.326Z,-11211.38
2022-09-24T19:01:54.544Z,-11204.91
2022-09-24T19:05:01.000Z,-11209.13
2022-09-24T19:08:07.710Z,-11196.91
2022-09-24T19:11:16.335Z,-11193.09
2022-09-24T19:14:24.893Z,-11178.06
2022-09-24T19:17:31.251Z,-11185.78
2022-09-24T19:20:38.539Z,-11190.84
2022-09-24T19:23:47.579Z,-11182.56
2022-09-24T19:26:54.274Z,-11180.44
2022-09-24T19:30:01.794Z,-11177.50
2022-09-24T19:33:08.701Z,-11177.06
2022-09-24T19:36:15.758Z,-11188.47
2022-09-24T19:39:22.319Z,-11182.28
2022-09-24T19:42:28.320Z,-11186.34
2022-09-24T19:45:36.531Z,-11187.47
2022-09-24T19:48:44.858Z,-11158.09
2022-09-24T19:51:51.342Z,-11159.66
2022-09-24T19:54:57.729Z,-11136.88
2022-09-24T19:58:04.152Z,-11152.06
2022-09-24T20:01:16.867Z,-11147.84
2022-09-24T20:04:24.752Z,-11126.34
2022-09-24T20:07:30.858Z,-11151.34
2022-09-24T20:10:37.724Z,-11130.41
2022-09-24T20:13:46.327Z,-11153.59
2022-09-24T20:16:54.000Z,-11151.50
2022-09-24T20:20:01.017Z,-11155.16
2022-09-24T20:23:08.330Z,-11141.09
2022-09-24T20:26:35.414Z,-11136.59
2022-09-24T20:29:43.639Z,-11122.69
2022-09-24T20:32:51.558Z,-11123.13
2022-09-24T20:36:03.749Z,-11116.94
2022-09-24T20:39:10.103Z,-11112.16
2022-09-24T20:42:16.232Z,-11116.38
2022-09-24T20:45:22.744Z,-11137.44
2022-09-24T20:48:32.748Z,-11140.81
2022-09-24T20:51:38.920Z,-11138.84
2022-09-24T20:55:02.454Z,-11135.06
2022-09-24T20:58:09.233Z,-11123.97
2022-09-24T21:01:15.909Z,-11101.78
2022-09-24T21:04:37.098Z,-11121.16
2022-09-24T21:07:43.879Z,-11112.44
2022-09-24T21:10:50.011Z,-11120.88
2022-09-24T21:13:58.482Z,-11124.25
2022-09-24T21:17:06.128Z,-11122.56
2022-09-24T21:20:13.771Z,-11129.59
2022-09-24T21:23:22.088Z,-11133.78
2022-09-24T21:26:30.128Z,-11123.13
2022-09-24T21:29:36.118Z,-11107.69
2022-09-24T21:32:42.675Z,-11117.09
2022-09-24T21:35:50.408Z,-11079.59
2022-09-24T21:38:58.287Z,-11065.84
2022-09-24T21:42:05.476Z,-11072.28
2022-09-24T21:45:13.833Z,-11100.38
2022-09-24T21:48:20.820Z,-11099.81
2022-09-24T21:51:30.314Z,-11113.84
2022-09-24T21:54:36.708Z,-11117.78
2022-09-24T21:57:42.877Z,-11116.53
2022-09-24T22:00:49.273Z,-11099.25
2022-09-24T22:03:56.664Z,-11088.72
2022-09-24T22:07:04.067Z,-11087.16
2022-09-24T22:10:11.249Z,-11108.22
2022-09-24T22:13:18.039Z,-11112.16
2022-09-24T22:16:24.952Z,-11108.78
2022-09-24T22:19:31.323Z,-11095.72
2022-09-24T22:22:38.776Z,-11087.44
2022-09-24T22:25:46.181Z,-11090.81
2022-09-24T22:28:52.223Z,-11104.16
2022-09-24T22:31:58.758Z,-11080.84
2022-09-24T22:35:22.373Z,-11074.13
2022-09-24T22:38:29.769Z,-11080.28
2022-09-24T22:41:38.810Z,-11079.59
2022-09-24T22:44:44.801Z,-11061.91
2022-09-24T22:47:51.086Z,-11063.31
2022-09-24T22:50:57.671Z,-11087.44
2022-09-24T22:54:05.465Z,-11096.44
2022-09-24T22:57:11.666Z,-11088.56
2022-09-24T23:00:18.350Z,-11067.50
2022-09-24T23:03:24.924Z,-11052.91
2022-09-24T23:06:33.953Z,-11047.88
2022-09-24T23:09:41.630Z,-11049.84
2022-09-24T23:12:48.028Z,-11056.56
2022-09-24T23:15:54.865Z,-11076.22
2022-09-24T23:19:02.856Z,-11062.03
2022-09-24T23:22:09.183Z,-11086.75
2022-09-24T23:25:17.794Z,-11072.72
2022-09-24T23:28:24.375Z,-11071.44
2022-09-24T23:31:33.004Z,-11072.00
2022-09-24T23:34:42.285Z,-11073.12
2022-09-24T23:37:48.588Z,-11061.34
2022-09-24T23:40:56.995Z,-11054.47
2022-09-24T23:44:03.621Z,-11069.34
2022-09-24T23:47:10.264Z,-11060.22
2022-09-24T23:50:16.640Z,-11072.00
2022-09-24T23:53:22.986Z,-11049.84
2022-09-24T23:56:30.885Z,-11055.16
2022-09-24T23:59:37.056Z,-11081.69
